Погода Ремонтноена неделю

Ростовская область, Россия

21 - 27 мая
  • 21мая
    Сегодня
    +9°
    +27°
    Ясно и безоблачно
    ВремяПогодаТемператураВлажностьДавлениеВетер, м/сВероятность осадков
    00:00Ясно и безоблачно+11°C58 %755 мм1.1 м/с2 %
    03:00Ясно и безоблачно+9°C58 %756 мм0.3 м/с2 %
    06:00Ясно и безоблачно+11°C51 %756 мм0.1 м/с2 %
    09:00Ясно и безоблачно+22°C23 %757 мм1.8 м/с2 %
    12:00Ясно и безоблачно+25°C20 %757 мм2.7 м/с2 %
    15:00Ясно и безоблачно+27°C20 %756 мм2.4 м/с2 %
    18:00Ясно и безоблачно+25°C21 %756 мм2.2 м/с2 %
    21:00Ясно и безоблачно+16°C35 %756 мм1.4 м/с2 %
  • 22мая
    Среда
    +9°
    +28°
    Небольшая облачность
    ВремяПогодаТемператураВлажностьДавлениеВетер, м/сВероятность осадков
    00:00Ясно и безоблачно+13°C37 %756 мм1.0 м/с2 %
    03:00Практически безоблачно+11°C40 %755 мм1.2 м/с2 %
    06:00Ясно и безоблачно+12°C45 %755 мм1.0 м/с2 %
    09:00Облачно с прояснениями+23°C28 %756 мм2.1 м/с2 %
    12:00Облачно с прояснениями+25°C23 %755 мм4.4 м/с2 %
    15:00Небольшая облачность+28°C22 %754 мм4.5 м/с2 %
    18:00Ясно и безоблачно+26°C22 %753 мм4.1 м/с2 %
    21:00Ясно и безоблачно+17°C34 %754 мм2.5 м/с2 %
  • 23мая
    Четверг
    +12°
    +29°
    Ясно и безоблачно
    ВремяПогодаТемператураВлажностьДавлениеВетер, м/сВероятность осадков
    00:00Ясно и безоблачно+13°C38 %754 мм1.6 м/с2 %
    03:00Ясно и безоблачно+10°C54 %754 мм0.9 м/с2 %
    06:00Ясно и безоблачно+11°C58 %754 мм1.0 м/с2 %
    09:00Ясно и безоблачно+21°C29 %754 мм3.9 м/с2 %
    12:00Ясно и безоблачно+26°C29 %754 мм5.1 м/с2 %
    15:00Ясно и безоблачно+28°C26 %753 мм4.7 м/с2 %
    18:00Практически безоблачно+27°C24 %753 мм4.4 м/с2 %
    21:00Ясно и безоблачно+18°C29 %753 мм1.8 м/с2 %
  • 24мая
    Пятница
    +8°
    +24°
    Ясно и безоблачно
    ВремяПогодаТемператураВлажностьДавлениеВетер, м/сВероятность осадков
    00:00Ясно и безоблачно+15°C56 %754 мм4.4 м/с2 %
    03:00Ясно и безоблачно+13°C74 %755 мм4.3 м/с2 %
    06:00Ясно и безоблачно+13°C54 %756 мм4.8 м/с2 %
    09:00Ясно и безоблачно+20°C39 %757 мм8.3 м/с2 %
    12:00Ясно и безоблачно+25°C28 %758 мм8.6 м/с2 %
    15:00Ясно и безоблачно+25°C22 %758 мм8.5 м/с3 %
    18:00Ясно и безоблачно+22°C18 %758 мм7.6 м/с7 %
    21:00Ясно и безоблачно+16°C21 %760 мм6.4 м/с2 %
Мы используем cookies
Соглашаюсь